createdAt,value
2023-05-18T00:00:40.392Z,5.37
2023-05-18T00:04:05.559Z,4.67
2023-05-18T00:07:34.300Z,5.77
2023-05-18T00:11:00.147Z,7.30
2023-05-18T00:14:27.004Z,5.10
2023-05-18T00:17:53.354Z,5.70
2023-05-18T00:21:20.436Z,5.07
2023-05-18T00:24:44.027Z,4.53
2023-05-18T00:28:08.137Z,4.87
2023-05-18T00:31:36.050Z,5.87
2023-05-18T00:34:59.673Z,5.30
2023-05-18T00:38:25.548Z,6.30
2023-05-18T00:41:50.192Z,5.70
2023-05-18T00:45:16.789Z,5.03
2023-05-18T00:48:40.449Z,5.93
2023-05-18T00:52:06.413Z,5.27
2023-05-18T00:55:32.006Z,6.00
2023-05-18T00:58:57.284Z,5.40
2023-05-18T01:02:21.830Z,6.27
2023-05-18T01:05:50.013Z,5.17
2023-05-18T01:09:14.488Z,4.93
2023-05-18T01:12:46.342Z,5.70
2023-05-18T01:16:16.087Z,6.20
2023-05-18T01:20:16.401Z,5.23
2023-05-18T01:24:05.860Z,5.60
2023-05-18T01:27:37.474Z,5.30
2023-05-18T01:31:02.355Z,6.30
2023-05-18T01:34:26.310Z,6.20
2023-05-18T01:37:50.232Z,5.23
2023-05-18T01:41:19.743Z,6.10
2023-05-18T01:44:52.586Z,6.07
2023-05-18T01:48:21.717Z,5.73
2023-05-18T01:51:48.217Z,5.33
2023-05-18T01:55:16.851Z,6.10
2023-05-18T01:58:42.375Z,6.47
2023-05-18T02:02:07.782Z,6.20
2023-05-18T02:05:33.049Z,6.03
2023-05-18T02:08:57.294Z,6.63
2023-05-18T02:12:21.391Z,5.73
2023-05-18T02:15:45.535Z,6.37
2023-05-18T02:19:14.574Z,6.33
2023-05-18T02:22:38.406Z,6.90
2023-05-18T02:26:04.369Z,7.00
2023-05-18T02:29:28.053Z,5.60
2023-05-18T02:32:53.432Z,6.23
2023-05-18T02:36:22.594Z,5.60
2023-05-18T02:39:46.447Z,6.90
2023-05-18T02:43:12.525Z,7.23
2023-05-18T02:46:36.283Z,6.57
2023-05-18T02:50:00.431Z,6.97
2023-05-18T02:53:26.354Z,6.00
2023-05-18T02:56:58.747Z,6.47
2023-05-18T03:00:59.877Z,6.23
2023-05-18T03:04:28.575Z,6.33
2023-05-18T03:07:54.743Z,5.73
2023-05-18T03:11:27.056Z,5.70
2023-05-18T03:14:51.332Z,7.30
2023-05-18T03:18:21.322Z,7.10
2023-05-18T03:21:52.258Z,6.73
2023-05-18T03:25:18.145Z,6.53
2023-05-18T03:28:44.986Z,7.47
2023-05-18T03:32:09.590Z,5.73
2023-05-18T03:35:34.542Z,7.80
2023-05-18T03:38:59.389Z,7.43
2023-05-18T03:42:23.976Z,8.00
2023-05-18T03:45:49.684Z,7.00
2023-05-18T03:49:14.497Z,7.30
2023-05-18T03:52:41.500Z,6.60
2023-05-18T03:56:05.226Z,6.83
2023-05-18T03:59:29.425Z,6.30
2023-05-18T04:02:55.032Z,6.30
2023-05-18T04:06:23.691Z,6.37
2023-05-18T04:09:47.408Z,6.80
2023-05-18T04:13:11.726Z,6.10
2023-05-18T04:16:35.613Z,6.47
2023-05-18T04:20:06.032Z,6.97
2023-05-18T04:23:31.496Z,6.43
2023-05-18T04:26:56.049Z,6.73
2023-05-18T04:30:23.388Z,5.30
2023-05-18T04:33:47.717Z,6.00
2023-05-18T04:37:12.917Z,7.27
2023-05-18T04:40:38.103Z,5.63
2023-05-18T04:44:03.498Z,6.57
2023-05-18T04:47:30.132Z,6.57
2023-05-18T04:50:54.299Z,5.30
2023-05-18T04:54:20.677Z,6.03
2023-05-18T04:57:45.036Z,5.47
2023-05-18T05:01:11.746Z,5.07
2023-05-18T05:04:35.636Z,4.67
2023-05-18T05:08:00.485Z,3.83
2023-05-18T05:11:25.890Z,5.40
2023-05-18T05:14:50.510Z,4.70
2023-05-18T05:18:19.641Z,4.43
2023-05-18T05:21:43.543Z,3.50
2023-05-18T05:25:09.368Z,4.17
2023-05-18T05:28:34.848Z,3.63
2023-05-18T05:31:59.455Z,3.73
2023-05-18T05:35:23.553Z,4.07
2023-05-18T05:38:48.493Z,4.20
2023-05-18T05:42:13.697Z,3.53
2023-05-18T05:45:40.586Z,3.90
2023-05-18T05:49:06.335Z,3.60
2023-05-18T05:52:31.915Z,3.80
2023-05-18T05:55:56.773Z,3.40
2023-05-18T05:59:21.397Z,3.20
2023-05-18T06:02:46.678Z,2.37
2023-05-18T06:06:10.646Z,2.80
2023-05-18T06:09:34.612Z,3.47
2023-05-18T06:12:58.633Z,3.20
2023-05-18T06:16:32.376Z,3.17
2023-05-18T06:20:01.566Z,3.07
2023-05-18T06:23:25.696Z,2.67
2023-05-18T06:26:57.979Z,3.00
2023-05-18T06:30:22.670Z,2.87
2023-05-18T06:34:03.910Z,3.93
2023-05-18T06:37:30.123Z,3.20
2023-05-18T06:40:53.788Z,3.20
2023-05-18T06:44:17.553Z,3.30
2023-05-18T06:48:01.597Z,3.47
2023-05-18T06:51:27.724Z,2.63
2023-05-18T06:54:54.203Z,3.03
2023-05-18T06:58:18.713Z,2.67
2023-05-18T07:01:44.946Z,3.30
2023-05-18T07:05:10.222Z,3.57
2023-05-18T07:08:39.274Z,2.93
2023-05-18T07:12:05.440Z,3.03
2023-05-18T07:15:29.599Z,2.73
2023-05-18T07:18:54.716Z,3.63
2023-05-18T07:22:18.620Z,3.30
2023-05-18T07:25:42.924Z,2.67
2023-05-18T07:29:08.005Z,2.70
2023-05-18T07:32:31.711Z,3.13
2023-05-18T07:35:55.713Z,3.20
2023-05-18T07:39:21.833Z,2.90
2023-05-18T07:42:48.403Z,3.00
2023-05-18T07:46:16.511Z,4.20
2023-05-18T07:49:40.673Z,3.70
2023-05-18T07:53:07.116Z,3.00
2023-05-18T07:56:35.030Z,3.00
2023-05-18T07:59:58.698Z,3.23
2023-05-18T08:03:31.450Z,3.40
2023-05-18T08:07:00.537Z,3.40
2023-05-18T08:10:24.911Z,3.20
2023-05-18T08:13:48.723Z,2.90
2023-05-18T08:17:12.941Z,2.80
2023-05-18T08:20:39.456Z,3.03
2023-05-18T08:24:04.156Z,3.50
2023-05-18T08:27:31.818Z,3.70
2023-05-18T08:30:55.916Z,2.80
2023-05-18T08:34:19.733Z,3.50
2023-05-18T08:37:46.182Z,3.13
2023-05-18T08:41:20.961Z,3.30
2023-05-18T08:44:51.701Z,3.30
2023-05-18T08:48:20.300Z,3.50
2023-05-18T08:51:50.056Z,3.10
2023-05-18T08:55:17.710Z,3.50
2023-05-18T08:58:45.818Z,4.33
2023-05-18T09:02:10.028Z,3.07
2023-05-18T09:05:34.392Z,3.10
2023-05-18T09:08:58.744Z,3.40
2023-05-18T09:12:24.724Z,3.73
2023-05-18T09:15:48.679Z,3.53
2023-05-18T09:19:12.599Z,3.20
2023-05-18T09:22:36.951Z,3.53
2023-05-18T09:26:01.611Z,3.23
2023-05-18T09:29:26.566Z,3.00
2023-05-18T09:32:50.982Z,3.60
2023-05-18T09:36:16.292Z,4.23
2023-05-18T09:39:39.953Z,3.33
2023-05-18T09:43:08.489Z,2.73
2023-05-18T09:46:37.122Z,3.50
2023-05-18T09:50:00.788Z,3.43
2023-05-18T09:53:24.408Z,4.20
2023-05-18T09:56:58.446Z,3.53
2023-05-18T10:00:32.809Z,4.93
2023-05-18T10:04:04.246Z,3.50
2023-05-18T10:07:27.968Z,3.50
2023-05-18T10:10:51.915Z,3.80
2023-05-18T10:14:15.925Z,3.07
2023-05-18T10:17:41.108Z,4.13
2023-05-18T10:21:08.148Z,3.83
2023-05-18T10:24:35.658Z,4.87
2023-05-18T10:28:02.092Z,4.13
2023-05-18T10:31:28.833Z,3.60
2023-05-18T10:34:54.071Z,4.50
2023-05-18T10:38:23.057Z,4.07
2023-05-18T10:41:47.713Z,3.67
2023-05-18T10:45:11.955Z,4.03
2023-05-18T10:48:39.715Z,4.20
2023-05-18T10:52:04.964Z,3.70
2023-05-18T10:55:31.431Z,4.43
2023-05-18T10:58:56.725Z,5.30
2023-05-18T11:02:21.465Z,4.17
2023-05-18T11:05:45.269Z,3.90
2023-05-18T11:09:08.802Z,4.87
2023-05-18T11:12:34.847Z,3.80
2023-05-18T11:16:09.784Z,3.10
2023-05-18T11:19:33.384Z,3.20
2023-05-18T11:23:04.369Z,4.37
2023-05-18T11:26:31.225Z,3.07
2023-05-18T11:30:07.584Z,5.00
2023-05-18T11:33:43.961Z,4.20
2023-05-18T11:37:10.014Z,3.90
2023-05-18T11:40:47.596Z,4.47
2023-05-18T11:44:18.881Z,4.87
2023-05-18T11:47:43.914Z,4.17
2023-05-18T11:51:10.022Z,3.30
2023-05-18T11:54:40.947Z,4.13
2023-05-18T11:58:04.558Z,4.50
2023-05-18T12:01:28.266Z,4.70
2023-05-18T12:04:56.341Z,5.27
2023-05-18T12:08:20.189Z,3.80
2023-05-18T12:11:43.741Z,4.17
2023-05-18T12:15:09.220Z,3.27
2023-05-18T12:18:35.160Z,4.57
2023-05-18T12:22:00.823Z,3.50
2023-05-18T12:25:26.798Z,3.83
2023-05-18T12:28:50.340Z,4.17
2023-05-18T12:32:14.456Z,4.37
2023-05-18T12:35:38.042Z,3.40
2023-05-18T12:39:03.929Z,4.90
2023-05-18T12:42:27.398Z,3.70
2023-05-18T12:45:51.101Z,5.00
2023-05-18T12:49:14.713Z,3.30
2023-05-18T12:52:38.383Z,3.37
2023-05-18T12:56:04.162Z,3.20
2023-05-18T12:59:28.207Z,3.47
2023-05-18T13:02:51.928Z,3.20
2023-05-18T13:06:15.904Z,4.27
2023-05-18T13:09:46.641Z,4.30
2023-05-18T13:13:11.673Z,4.03
2023-05-18T13:16:38.136Z,4.40
2023-05-18T13:20:01.805Z,3.57
2023-05-18T13:23:29.927Z,3.73
2023-05-18T13:26:53.561Z,3.37
2023-05-18T13:30:18.905Z,3.80
2023-05-18T13:33:42.721Z,3.10
2023-05-18T13:37:06.456Z,3.70
2023-05-18T13:40:30.081Z,3.70
2023-05-18T13:43:53.733Z,3.10
2023-05-18T13:47:18.543Z,3.93
2023-05-18T13:50:42.122Z,4.60
2023-05-18T13:54:07.768Z,3.90
2023-05-18T13:57:32.125Z,3.60
2023-05-18T14:00:55.716Z,5.03
2023-05-18T14:04:20.711Z,3.37
2023-05-18T14:07:44.677Z,3.90
2023-05-18T14:11:08.230Z,4.07
2023-05-18T14:14:31.767Z,3.73
2023-05-18T14:17:55.375Z,4.00
2023-05-18T14:21:20.319Z,4.20
2023-05-18T14:24:43.841Z,3.30
2023-05-18T14:28:07.468Z,3.93
2023-05-18T14:31:31.057Z,3.23
2023-05-18T14:34:55.798Z,3.43
2023-05-18T14:38:21.515Z,5.33
2023-05-18T14:41:44.992Z,3.13
2023-05-18T14:45:09.783Z,3.80
2023-05-18T14:48:33.378Z,4.20
2023-05-18T14:51:56.911Z,3.73
2023-05-18T14:55:21.804Z,3.30
2023-05-18T14:58:45.398Z,3.60
2023-05-18T15:02:09.100Z,4.10
2023-05-18T15:05:33.440Z,3.60
2023-05-18T15:08:56.945Z,3.97
2023-05-18T15:12:23.223Z,3.90
2023-05-18T15:15:46.941Z,3.27
2023-05-18T15:19:10.687Z,3.97
2023-05-18T15:22:35.702Z,3.50
2023-05-18T15:26:01.341Z,4.20
2023-05-18T15:29:29.190Z,3.40
2023-05-18T15:32:52.692Z,4.43
2023-05-18T15:36:19.690Z,4.17
2023-05-18T15:39:43.273Z,4.23
2023-05-18T15:43:08.787Z,3.80
2023-05-18T15:46:35.715Z,3.57
2023-05-18T15:50:01.491Z,3.87
2023-05-18T15:53:25.279Z,4.10
2023-05-18T15:56:49.422Z,3.70
2023-05-18T16:00:15.664Z,4.23
2023-05-18T16:03:40.853Z,3.40
2023-05-18T16:07:04.700Z,3.60
2023-05-18T16:10:28.404Z,3.63
2023-05-18T16:13:56.750Z,3.70
2023-05-18T16:17:21.210Z,3.30
2023-05-18T16:20:46.190Z,3.57
2023-05-18T16:24:10.338Z,3.77
2023-05-18T16:27:33.895Z,3.90
2023-05-18T16:30:57.619Z,3.80
2023-05-18T16:34:21.204Z,3.93
2023-05-18T16:37:46.109Z,3.70
2023-05-18T16:41:11.137Z,4.40
2023-05-18T16:44:36.148Z,3.63
2023-05-18T16:48:00.661Z,3.60
2023-05-18T16:51:26.590Z,3.70
2023-05-18T16:54:52.265Z,2.67
2023-05-18T16:58:16.195Z,3.37
2023-05-18T17:01:39.701Z,3.47
2023-05-18T17:05:03.393Z,2.93
2023-05-18T17:08:26.915Z,4.53
2023-05-18T17:11:51.808Z,3.10
2023-05-18T17:15:16.285Z,3.90
2023-05-18T17:18:39.867Z,3.20
2023-05-18T17:22:03.485Z,3.90
2023-05-18T17:25:27.170Z,3.20
2023-05-18T17:28:52.934Z,3.10
2023-05-18T17:32:16.633Z,3.90
2023-05-18T17:35:40.454Z,3.73
2023-05-18T17:39:04.393Z,3.73
2023-05-18T17:42:27.930Z,3.53
2023-05-18T17:45:52.795Z,3.10
2023-05-18T17:49:16.742Z,3.53
2023-05-18T17:52:40.189Z,3.80
2023-05-18T17:56:03.946Z,3.90
2023-05-18T17:59:27.406Z,3.40
2023-05-18T18:02:52.724Z,3.10
2023-05-18T18:06:17.694Z,3.00
2023-05-18T18:09:41.327Z,3.90
2023-05-18T18:13:04.878Z,3.50
2023-05-18T18:16:28.690Z,3.07
2023-05-18T18:19:53.644Z,3.93
2023-05-18T18:23:17.234Z,4.40
2023-05-18T18:26:41.146Z,3.70
2023-05-18T18:30:05.206Z,3.30
2023-05-18T18:33:28.870Z,4.17
2023-05-18T18:36:53.875Z,3.70
2023-05-18T18:40:17.717Z,3.43
2023-05-18T18:43:41.403Z,5.13
2023-05-18T18:47:05.557Z,3.87
2023-05-18T18:50:29.422Z,3.23
2023-05-18T18:53:54.513Z,4.00
2023-05-18T18:57:18.116Z,3.50
2023-05-18T19:00:41.730Z,3.43
2023-05-18T19:04:05.464Z,3.33
2023-05-18T19:07:29.044Z,3.57
2023-05-18T19:10:54.289Z,3.43
2023-05-18T19:14:18.400Z,3.20
2023-05-18T19:17:42.930Z,3.37
2023-05-18T19:21:06.510Z,3.70
2023-05-18T19:24:30.030Z,3.20
2023-05-18T19:27:55.129Z,3.50
2023-05-18T19:31:18.874Z,3.23
2023-05-18T19:34:42.504Z,3.93
2023-05-18T19:38:09.097Z,3.30
2023-05-18T19:41:33.528Z,3.97
2023-05-18T19:44:58.446Z,3.40
2023-05-18T19:48:22.032Z,3.03
2023-05-18T19:51:50.813Z,3.37
2023-05-18T19:55:14.453Z,3.53
2023-05-18T19:58:38.076Z,2.90
2023-05-18T20:02:05.004Z,3.27
2023-05-18T20:05:29.657Z,3.17
2023-05-18T20:08:53.947Z,2.80
2023-05-18T20:12:17.644Z,3.20
2023-05-18T20:15:41.305Z,4.30
2023-05-18T20:19:06.573Z,4.60
2023-05-18T20:22:30.400Z,4.30
2023-05-18T20:25:55.304Z,4.17
2023-05-18T20:29:19.036Z,3.90
2023-05-18T20:32:42.693Z,4.10
2023-05-18T20:36:08.877Z,5.10
2023-05-18T20:39:32.757Z,4.70
2023-05-18T20:42:56.420Z,4.37
2023-05-18T20:46:23.841Z,4.60
2023-05-18T20:49:48.169Z,4.87
2023-05-18T20:53:13.273Z,4.67
2023-05-18T20:56:37.408Z,4.37
2023-05-18T21:00:01.451Z,4.47
2023-05-18T21:03:25.209Z,4.33
2023-05-18T21:06:49.176Z,5.30
2023-05-18T21:10:15.011Z,4.90
2023-05-18T21:13:40.047Z,3.90
2023-05-18T21:17:07.360Z,3.90
2023-05-18T21:20:33.279Z,4.10
2023-05-18T21:23:57.075Z,4.03
2023-05-18T21:27:24.527Z,3.90
2023-05-18T21:30:49.344Z,4.40
2023-05-18T21:34:13.763Z,4.40
2023-05-18T21:37:38.064Z,5.37
2023-05-18T21:41:01.704Z,4.63
2023-05-18T21:44:27.124Z,5.00
2023-05-18T21:47:51.149Z,5.37
2023-05-18T21:51:15.800Z,4.63
2023-05-18T21:54:39.410Z,4.93
2023-05-18T21:58:03.699Z,4.80
2023-05-18T22:01:30.028Z,4.57
2023-05-18T22:04:53.724Z,5.23
2023-05-18T22:08:18.241Z,6.53
2023-05-18T22:11:42.731Z,5.10
2023-05-18T22:15:07.378Z,4.73
2023-05-18T22:18:33.304Z,4.27
2023-05-18T22:21:56.876Z,4.47
2023-05-18T22:25:20.549Z,5.20
2023-05-18T22:28:44.739Z,4.80
2023-05-18T22:32:09.244Z,4.87
2023-05-18T22:35:36.646Z,4.10
2023-05-18T22:39:00.226Z,5.33
2023-05-18T22:42:37.417Z,5.20
2023-05-18T22:46:03.098Z,4.77
2023-05-18T22:49:26.763Z,4.80
2023-05-18T22:52:52.438Z,4.50
2023-05-18T22:56:18.909Z,4.73
2023-05-18T22:59:42.731Z,4.73
2023-05-18T23:03:06.808Z,5.43
2023-05-18T23:06:31.602Z,6.50
2023-05-18T23:09:57.200Z,5.10
2023-05-18T23:13:21.045Z,5.50
2023-05-18T23:16:46.679Z,5.27
2023-05-18T23:20:12.085Z,5.60
2023-05-18T23:23:36.012Z,5.47
2023-05-18T23:27:03.820Z,5.63
2023-05-18T23:30:29.358Z,6.33
2023-05-18T23:33:53.541Z,5.43
2023-05-18T23:37:20.867Z,6.00
2023-05-18T23:40:45.408Z,5.60
2023-05-18T23:44:12.072Z,5.43
2023-05-18T23:47:36.305Z,5.60
2023-05-18T23:51:02.373Z,5.80
2023-05-18T23:54:27.359Z,5.03
2023-05-18T23:57:52.613Z,4.73
